sensor_id;sensor_type;location;lat;lon;timestamp;P1;durP1;ratioP1;P2;durP2;ratioP2
6354;SDS011;3210;48.708;9.030;2023-11-19T00:01:42;2.63;;;2.43;;
6354;SDS011;3210;48.708;9.030;2023-11-19T00:04:09;4.40;;;2.40;;
6354;SDS011;3210;48.708;9.030;2023-11-19T00:06:37;2.60;;;2.40;;
6354;SDS011;3210;48.708;9.030;2023-11-19T00:09:03;1.97;;;1.80;;
6354;SDS011;3210;48.708;9.030;2023-11-19T00:11:30;4.80;;;4.07;;
6354;SDS011;3210;48.708;9.030;2023-11-19T00:13:57;3.13;;;2.83;;
6354;SDS011;3210;48.708;9.030;2023-11-19T00:16:24;5.50;;;3.33;;
6354;SDS011;3210;48.708;9.030;2023-11-19T00:18:50;3.93;;;2.80;;
6354;SDS011;3210;48.708;9.030;2023-11-19T00:21:17;3.20;;;2.53;;
6354;SDS011;3210;48.708;9.030;2023-11-19T00:23:45;5.43;;;3.00;;
6354;SDS011;3210;48.708;9.030;2023-11-19T00:26:12;2.60;;;2.40;;
6354;SDS011;3210;48.708;9.030;2023-11-19T00:28:40;4.23;;;2.73;;
6354;SDS011;3210;48.708;9.030;2023-11-19T00:31:08;4.43;;;2.33;;
6354;SDS011;3210;48.708;9.030;2023-11-19T00:33:34;3.07;;;2.07;;
6354;SDS011;3210;48.708;9.030;2023-11-19T00:36:02;3.80;;;2.30;;
6354;SDS011;3210;48.708;9.030;2023-11-19T00:38:29;3.57;;;2.37;;
6354;SDS011;3210;48.708;9.030;2023-11-19T00:40:58;3.13;;;2.53;;
6354;SDS011;3210;48.708;9.030;2023-11-19T00:43:25;1.60;;;1.50;;
6354;SDS011;3210;48.708;9.030;2023-11-19T00:45:52;2.37;;;1.90;;
6354;SDS011;3210;48.708;9.030;2023-11-19T00:48:19;2.17;;;1.50;;
6354;SDS011;3210;48.708;9.030;2023-11-19T00:50:45;2.40;;;1.43;;
6354;SDS011;3210;48.708;9.030;2023-11-19T00:53:12;1.30;;;1.20;;
6354;SDS011;3210;48.708;9.030;2023-11-19T00:55:45;3.43;;;1.27;;
6354;SDS011;3210;48.708;9.030;2023-11-19T00:58:13;11.07;;;1.50;;
6354;SDS011;3210;48.708;9.030;2023-11-19T01:00:42;1.00;;;0.90;;
6354;SDS011;3210;48.708;9.030;2023-11-19T01:03:09;2.07;;;0.73;;
6354;SDS011;3210;48.708;9.030;2023-11-19T01:05:36;1.40;;;1.07;;
6354;SDS011;3210;48.708;9.030;2023-11-19T01:08:04;0.87;;;0.87;;
6354;SDS011;3210;48.708;9.030;2023-11-19T01:10:31;1.17;;;0.83;;
6354;SDS011;3210;48.708;9.030;2023-11-19T01:12:59;2.50;;;0.87;;
6354;SDS011;3210;48.708;9.030;2023-11-19T01:15:27;0.80;;;0.70;;
6354;SDS011;3210;48.708;9.030;2023-11-19T01:17:53;2.20;;;0.73;;
6354;SDS011;3210;48.708;9.030;2023-11-19T01:20:20;0.80;;;0.50;;
6354;SDS011;3210;48.708;9.030;2023-11-19T01:22:47;0.73;;;0.63;;
6354;SDS011;3210;48.708;9.030;2023-11-19T01:25:14;0.60;;;0.60;;
6354;SDS011;3210;48.708;9.030;2023-11-19T01:27:41;4.10;;;0.80;;
6354;SDS011;3210;48.708;9.030;2023-11-19T01:30:08;0.90;;;0.50;;
6354;SDS011;3210;48.708;9.030;2023-11-19T01:32:39;0.60;;;0.60;;
6354;SDS011;3210;48.708;9.030;2023-11-19T01:35:06;0.80;;;0.70;;
6354;SDS011;3210;48.708;9.030;2023-11-19T01:37:34;0.50;;;0.43;;
6354;SDS011;3210;48.708;9.030;2023-11-19T01:40:01;0.50;;;0.40;;
6354;SDS011;3210;48.708;9.030;2023-11-19T01:42:29;0.60;;;0.50;;
6354;SDS011;3210;48.708;9.030;2023-11-19T01:45:01;1.17;;;0.47;;
6354;SDS011;3210;48.708;9.030;2023-11-19T01:47:31;1.00;;;0.53;;
6354;SDS011;3210;48.708;9.030;2023-11-19T01:50:01;1.00;;;0.70;;
6354;SDS011;3210;48.708;9.030;2023-11-19T01:52:31;0.83;;;0.60;;
6354;SDS011;3210;48.708;9.030;2023-11-19T01:55:00;0.77;;;0.77;;
6354;SDS011;3210;48.708;9.030;2023-11-19T01:57:28;0.90;;;0.90;;
6354;SDS011;3210;48.708;9.030;2023-11-19T01:59:55;1.07;;;0.60;;
6354;SDS011;3210;48.708;9.030;2023-11-19T02:02:22;1.20;;;0.70;;
6354;SDS011;3210;48.708;9.030;2023-11-19T02:04:49;0.70;;;0.60;;
6354;SDS011;3210;48.708;9.030;2023-11-19T02:07:18;0.80;;;0.80;;
6354;SDS011;3210;48.708;9.030;2023-11-19T02:09:45;0.70;;;0.50;;
6354;SDS011;3210;48.708;9.030;2023-11-19T02:12:12;0.60;;;0.50;;
6354;SDS011;3210;48.708;9.030;2023-11-19T02:14:39;0.93;;;0.80;;
6354;SDS011;3210;48.708;9.030;2023-11-19T02:17:05;0.70;;;0.50;;
6354;SDS011;3210;48.708;9.030;2023-11-19T02:22:56;0.70;;;0.57;;
6354;SDS011;3210;48.708;9.030;2023-11-19T02:25:24;0.50;;;0.40;;
6354;SDS011;3210;48.708;9.030;2023-11-19T02:27:59;1.00;;;0.70;;
6354;SDS011;3210;48.708;9.030;2023-11-19T02:30:28;0.73;;;0.60;;
6354;SDS011;3210;48.708;9.030;2023-11-19T02:32:57;0.60;;;0.60;;
6354;SDS011;3210;48.708;9.030;2023-11-19T02:35:28;0.60;;;0.60;;
6354;SDS011;3210;48.708;9.030;2023-11-19T02:37:56;1.10;;;0.70;;
6354;SDS011;3210;48.708;9.030;2023-11-19T02:40:24;1.23;;;0.50;;
6354;SDS011;3210;48.708;9.030;2023-11-19T02:42:51;0.70;;;0.60;;
6354;SDS011;3210;48.708;9.030;2023-11-19T02:45:19;0.50;;;0.40;;
6354;SDS011;3210;48.708;9.030;2023-11-19T02:47:47;0.60;;;0.40;;
6354;SDS011;3210;48.708;9.030;2023-11-19T02:50:14;0.93;;;0.60;;
6354;SDS011;3210;48.708;9.030;2023-11-19T02:52:40;1.23;;;0.57;;
6354;SDS011;3210;48.708;9.030;2023-11-19T02:55:07;0.60;;;0.43;;
6354;SDS011;3210;48.708;9.030;2023-11-19T02:57:37;1.03;;;0.50;;
6354;SDS011;3210;48.708;9.030;2023-11-19T03:00:06;1.70;;;1.60;;
6354;SDS011;3210;48.708;9.030;2023-11-19T03:02:39;3.93;;;3.07;;
6354;SDS011;3210;48.708;9.030;2023-11-19T03:05:10;2.80;;;2.60;;
6354;SDS011;3210;48.708;9.030;2023-11-19T03:07:39;2.50;;;2.20;;
6354;SDS011;3210;48.708;9.030;2023-11-19T03:10:07;2.30;;;2.10;;
6354;SDS011;3210;48.708;9.030;2023-11-19T03:12:37;1.73;;;1.20;;
6354;SDS011;3210;48.708;9.030;2023-11-19T03:15:05;1.37;;;1.27;;
6354;SDS011;3210;48.708;9.030;2023-11-19T03:17:34;1.03;;;0.93;;
6354;SDS011;3210;48.708;9.030;2023-11-19T03:20:03;1.83;;;0.70;;
6354;SDS011;3210;48.708;9.030;2023-11-19T03:22:32;0.60;;;0.50;;
6354;SDS011;3210;48.708;9.030;2023-11-19T03:25:00;0.60;;;0.40;;
6354;SDS011;3210;48.708;9.030;2023-11-19T03:27:26;0.70;;;0.70;;
6354;SDS011;3210;48.708;9.030;2023-11-19T03:29:53;1.10;;;0.90;;
6354;SDS011;3210;48.708;9.030;2023-11-19T03:32:20;0.80;;;0.80;;
6354;SDS011;3210;48.708;9.030;2023-11-19T03:34:47;1.10;;;1.00;;
6354;SDS011;3210;48.708;9.030;2023-11-19T03:37:15;1.40;;;1.10;;
6354;SDS011;3210;48.708;9.030;2023-11-19T03:39:42;1.20;;;1.10;;
6354;SDS011;3210;48.708;9.030;2023-11-19T03:42:09;0.90;;;0.90;;
6354;SDS011;3210;48.708;9.030;2023-11-19T03:44:37;1.40;;;1.17;;
6354;SDS011;3210;48.708;9.030;2023-11-19T03:47:03;0.77;;;0.53;;
6354;SDS011;3210;48.708;9.030;2023-11-19T03:49:31;1.17;;;0.90;;
6354;SDS011;3210;48.708;9.030;2023-11-19T03:51:57;0.60;;;0.40;;
6354;SDS011;3210;48.708;9.030;2023-11-19T03:54:26;0.60;;;0.50;;
6354;SDS011;3210;48.708;9.030;2023-11-19T03:56:53;0.80;;;0.33;;
6354;SDS011;3210;48.708;9.030;2023-11-19T03:59:19;0.60;;;0.50;;
6354;SDS011;3210;48.708;9.030;2023-11-19T04:01:46;1.73;;;0.63;;
6354;SDS011;3210;48.708;9.030;2023-11-19T04:04:13;0.80;;;0.30;;
6354;SDS011;3210;48.708;9.030;2023-11-19T04:06:40;0.50;;;0.40;;
6354;SDS011;3210;48.708;9.030;2023-11-19T04:09:07;0.60;;;0.53;;
6354;SDS011;3210;48.708;9.030;2023-11-19T04:11:35;0.83;;;0.40;;
6354;SDS011;3210;48.708;9.030;2023-11-19T04:14:02;0.50;;;0.30;;
6354;SDS011;3210;48.708;9.030;2023-11-19T04:16:28;0.53;;;0.33;;
6354;SDS011;3210;48.708;9.030;2023-11-19T04:18:55;0.50;;;0.40;;
6354;SDS011;3210;48.708;9.030;2023-11-19T04:21:22;0.57;;;0.40;;
6354;SDS011;3210;48.708;9.030;2023-11-19T04:23:49;2.00;;;0.60;;
6354;SDS011;3210;48.708;9.030;2023-11-19T04:26:15;0.57;;;0.37;;
6354;SDS011;3210;48.708;9.030;2023-11-19T04:28:44;0.50;;;0.30;;
6354;SDS011;3210;48.708;9.030;2023-11-19T04:31:10;2.87;;;0.40;;
6354;SDS011;3210;48.708;9.030;2023-11-19T04:33:37;0.50;;;0.30;;
6354;SDS011;3210;48.708;9.030;2023-11-19T04:36:04;0.60;;;0.30;;
6354;SDS011;3210;48.708;9.030;2023-11-19T04:38:32;2.93;;;0.50;;
6354;SDS011;3210;48.708;9.030;2023-11-19T04:40:59;0.60;;;0.40;;
6354;SDS011;3210;48.708;9.030;2023-11-19T04:43:27;0.70;;;0.50;;
6354;SDS011;3210;48.708;9.030;2023-11-19T04:45:55;1.37;;;0.50;;
6354;SDS011;3210;48.708;9.030;2023-11-19T04:48:22;0.60;;;0.50;;
6354;SDS011;3210;48.708;9.030;2023-11-19T04:50:49;0.60;;;0.50;;
6354;SDS011;3210;48.708;9.030;2023-11-19T04:53:17;0.60;;;0.47;;
6354;SDS011;3210;48.708;9.030;2023-11-19T04:55:44;0.60;;;0.37;;
6354;SDS011;3210;48.708;9.030;2023-11-19T04:58:11;0.53;;;0.40;;
6354;SDS011;3210;48.708;9.030;2023-11-19T05:00:37;0.60;;;0.50;;
6354;SDS011;3210;48.708;9.030;2023-11-19T05:03:05;0.60;;;0.43;;
6354;SDS011;3210;48.708;9.030;2023-11-19T05:05:33;0.60;;;0.40;;
6354;SDS011;3210;48.708;9.030;2023-11-19T05:08:00;0.50;;;0.30;;
6354;SDS011;3210;48.708;9.030;2023-11-19T05:10:26;0.50;;;0.40;;
6354;SDS011;3210;48.708;9.030;2023-11-19T05:12:53;0.50;;;0.30;;
6354;SDS011;3210;48.708;9.030;2023-11-19T05:15:21;2.50;;;0.70;;
6354;SDS011;3210;48.708;9.030;2023-11-19T05:17:49;0.50;;;0.40;;
6354;SDS011;3210;48.708;9.030;2023-11-19T05:20:17;0.50;;;0.30;;
6354;SDS011;3210;48.708;9.030;2023-11-19T05:22:43;2.10;;;0.30;;
6354;SDS011;3210;48.708;9.030;2023-11-19T05:25:11;2.63;;;0.40;;
6354;SDS011;3210;48.708;9.030;2023-11-19T05:27:37;0.97;;;0.40;;
6354;SDS011;3210;48.708;9.030;2023-11-19T05:30:05;0.50;;;0.30;;
6354;SDS011;3210;48.708;9.030;2023-11-19T05:32:33;0.50;;;0.37;;
6354;SDS011;3210;48.708;9.030;2023-11-19T05:35:00;0.50;;;0.40;;
6354;SDS011;3210;48.708;9.030;2023-11-19T05:37:28;0.60;;;0.30;;
6354;SDS011;3210;48.708;9.030;2023-11-19T05:39:55;0.60;;;0.50;;
6354;SDS011;3210;48.708;9.030;2023-11-19T05:42:22;0.60;;;0.50;;
6354;SDS011;3210;48.708;9.030;2023-11-19T05:44:49;0.53;;;0.40;;
6354;SDS011;3210;48.708;9.030;2023-11-19T05:47:17;0.80;;;0.40;;
6354;SDS011;3210;48.708;9.030;2023-11-19T05:49:43;0.53;;;0.33;;
6354;SDS011;3210;48.708;9.030;2023-11-19T05:52:10;0.50;;;0.30;;
6354;SDS011;3210;48.708;9.030;2023-11-19T05:54:38;0.50;;;0.30;;
6354;SDS011;3210;48.708;9.030;2023-11-19T05:57:05;0.50;;;0.30;;
6354;SDS011;3210;48.708;9.030;2023-11-19T05:59:34;2.00;;;0.40;;
6354;SDS011;3210;48.708;9.030;2023-11-19T06:02:01;0.50;;;0.30;;
6354;SDS011;3210;48.708;9.030;2023-11-19T06:04:28;0.50;;;0.50;;
6354;SDS011;3210;48.708;9.030;2023-11-19T06:06:54;0.60;;;0.30;;
6354;SDS011;3210;48.708;9.030;2023-11-19T06:09:21;2.53;;;0.57;;
6354;SDS011;3210;48.708;9.030;2023-11-19T06:11:50;0.50;;;0.40;;
6354;SDS011;3210;48.708;9.030;2023-11-19T06:14:17;5.43;;;1.77;;
6354;SDS011;3210;48.708;9.030;2023-11-19T06:16:44;0.60;;;0.40;;
6354;SDS011;3210;48.708;9.030;2023-11-19T06:19:11;0.83;;;0.40;;
6354;SDS011;3210;48.708;9.030;2023-11-19T06:21:38;4.63;;;0.30;;
6354;SDS011;3210;48.708;9.030;2023-11-19T06:24:04;0.50;;;0.33;;
6354;SDS011;3210;48.708;9.030;2023-11-19T06:26:31;0.60;;;0.40;;
6354;SDS011;3210;48.708;9.030;2023-11-19T06:29:00;0.60;;;0.40;;
6354;SDS011;3210;48.708;9.030;2023-11-19T06:31:26;0.80;;;0.80;;
6354;SDS011;3210;48.708;9.030;2023-11-19T06:33:53;0.80;;;0.30;;
6354;SDS011;3210;48.708;9.030;2023-11-19T06:36:20;1.73;;;0.67;;
6354;SDS011;3210;48.708;9.030;2023-11-19T06:38:46;0.80;;;0.30;;
6354;SDS011;3210;48.708;9.030;2023-11-19T06:41:13;0.87;;;0.50;;
6354;SDS011;3210;48.708;9.030;2023-11-19T06:43:40;0.50;;;0.30;;
6354;SDS011;3210;48.708;9.030;2023-11-19T06:46:15;0.53;;;0.30;;
6354;SDS011;3210;48.708;9.030;2023-11-19T06:48:42;3.07;;;0.43;;
6354;SDS011;3210;48.708;9.030;2023-11-19T06:51:09;0.63;;;0.50;;
6354;SDS011;3210;48.708;9.030;2023-11-19T06:53:36;0.67;;;0.30;;
6354;SDS011;3210;48.708;9.030;2023-11-19T06:56:04;0.50;;;0.40;;
6354;SDS011;3210;48.708;9.030;2023-11-19T06:58:42;0.60;;;0.40;;
6354;SDS011;3210;48.708;9.030;2023-11-19T07:01:09;0.60;;;0.50;;
6354;SDS011;3210;48.708;9.030;2023-11-19T07:03:37;0.70;;;0.50;;
6354;SDS011;3210;48.708;9.030;2023-11-19T07:06:04;1.03;;;0.40;;
6354;SDS011;3210;48.708;9.030;2023-11-19T07:08:31;2.53;;;0.77;;
6354;SDS011;3210;48.708;9.030;2023-11-19T07:10:59;0.50;;;0.40;;
6354;SDS011;3210;48.708;9.030;2023-11-19T07:13:26;0.70;;;0.50;;
6354;SDS011;3210;48.708;9.030;2023-11-19T07:15:53;1.67;;;0.40;;
6354;SDS011;3210;48.708;9.030;2023-11-19T07:18:20;0.50;;;0.40;;
6354;SDS011;3210;48.708;9.030;2023-11-19T07:20:48;0.63;;;0.33;;
6354;SDS011;3210;48.708;9.030;2023-11-19T07:23:15;0.67;;;0.40;;
6354;SDS011;3210;48.708;9.030;2023-11-19T07:25:42;0.70;;;0.43;;
6354;SDS011;3210;48.708;9.030;2023-11-19T07:28:10;9.67;;;0.50;;
6354;SDS011;3210;48.708;9.030;2023-11-19T07:30:37;0.67;;;0.40;;
6354;SDS011;3210;48.708;9.030;2023-11-19T07:33:04;1.07;;;0.63;;
6354;SDS011;3210;48.708;9.030;2023-11-19T07:35:31;6.20;;;0.80;;
6354;SDS011;3210;48.708;9.030;2023-11-19T07:37:59;3.03;;;0.70;;
6354;SDS011;3210;48.708;9.030;2023-11-19T07:40:26;0.70;;;0.50;;
6354;SDS011;3210;48.708;9.030;2023-11-19T07:42:53;0.83;;;0.47;;
6354;SDS011;3210;48.708;9.030;2023-11-19T07:45:20;2.03;;;1.23;;
6354;SDS011;3210;48.708;9.030;2023-11-19T07:47:47;1.73;;;0.80;;
6354;SDS011;3210;48.708;9.030;2023-11-19T07:50:13;0.40;;;0.30;;
6354;SDS011;3210;48.708;9.030;2023-11-19T07:52:41;0.83;;;0.50;;
6354;SDS011;3210;48.708;9.030;2023-11-19T07:55:10;1.77;;;0.40;;
6354;SDS011;3210;48.708;9.030;2023-11-19T07:57:36;0.80;;;0.70;;
6354;SDS011;3210;48.708;9.030;2023-11-19T08:00:04;0.50;;;0.30;;
6354;SDS011;3210;48.708;9.030;2023-11-19T08:02:32;0.50;;;0.40;;
6354;SDS011;3210;48.708;9.030;2023-11-19T08:05:02;0.63;;;0.40;;
6354;SDS011;3210;48.708;9.030;2023-11-19T08:07:29;0.60;;;0.40;;
6354;SDS011;3210;48.708;9.030;2023-11-19T08:09:56;0.60;;;0.43;;
6354;SDS011;3210;48.708;9.030;2023-11-19T08:12:24;0.60;;;0.50;;
6354;SDS011;3210;48.708;9.030;2023-11-19T08:14:51;1.60;;;0.70;;
6354;SDS011;3210;48.708;9.030;2023-11-19T08:17:17;0.60;;;0.40;;
6354;SDS011;3210;48.708;9.030;2023-11-19T08:19:44;0.70;;;0.40;;
6354;SDS011;3210;48.708;9.030;2023-11-19T08:22:11;0.60;;;0.40;;
6354;SDS011;3210;48.708;9.030;2023-11-19T08:24:38;0.73;;;0.50;;
6354;SDS011;3210;48.708;9.030;2023-11-19T08:27:04;1.77;;;0.50;;
6354;SDS011;3210;48.708;9.030;2023-11-19T08:29:32;2.40;;;0.67;;
6354;SDS011;3210;48.708;9.030;2023-11-19T08:31:59;1.37;;;0.60;;
6354;SDS011;3210;48.708;9.030;2023-11-19T08:34:28;0.60;;;0.50;;
6354;SDS011;3210;48.708;9.030;2023-11-19T08:36:55;3.63;;;0.40;;
6354;SDS011;3210;48.708;9.030;2023-11-19T08:39:22;2.87;;;0.60;;
6354;SDS011;3210;48.708;9.030;2023-11-19T08:41:49;3.23;;;0.37;;
6354;SDS011;3210;48.708;9.030;2023-11-19T08:44:16;0.60;;;0.50;;
6354;SDS011;3210;48.708;9.030;2023-11-19T08:46:49;1.63;;;0.90;;
6354;SDS011;3210;48.708;9.030;2023-11-19T08:49:16;1.90;;;0.40;;
6354;SDS011;3210;48.708;9.030;2023-11-19T08:51:42;0.90;;;0.40;;
6354;SDS011;3210;48.708;9.030;2023-11-19T08:54:10;0.70;;;0.60;;
6354;SDS011;3210;48.708;9.030;2023-11-19T08:56:37;0.90;;;0.47;;
6354;SDS011;3210;48.708;9.030;2023-11-19T08:59:04;1.03;;;0.60;;
6354;SDS011;3210;48.708;9.030;2023-11-19T09:01:31;1.13;;;0.60;;
6354;SDS011;3210;48.708;9.030;2023-11-19T09:03:59;0.90;;;0.80;;
6354;SDS011;3210;48.708;9.030;2023-11-19T09:06:26;0.97;;;0.87;;
6354;SDS011;3210;48.708;9.030;2023-11-19T09:08:53;1.10;;;0.60;;
6354;SDS011;3210;48.708;9.030;2023-11-19T09:11:23;1.10;;;0.53;;
6354;SDS011;3210;48.708;9.030;2023-11-19T09:13:50;1.27;;;0.60;;
6354;SDS011;3210;48.708;9.030;2023-11-19T09:16:16;1.20;;;0.70;;
6354;SDS011;3210;48.708;9.030;2023-11-19T09:18:43;2.03;;;0.90;;
6354;SDS011;3210;48.708;9.030;2023-11-19T09:21:11;0.93;;;0.83;;
6354;SDS011;3210;48.708;9.030;2023-11-19T09:23:38;2.80;;;0.60;;
6354;SDS011;3210;48.708;9.030;2023-11-19T09:26:05;0.50;;;0.40;;
6354;SDS011;3210;48.708;9.030;2023-11-19T09:28:35;0.77;;;0.53;;
6354;SDS011;3210;48.708;9.030;2023-11-19T09:31:01;1.57;;;0.60;;
6354;SDS011;3210;48.708;9.030;2023-11-19T09:33:29;0.50;;;0.40;;
6354;SDS011;3210;48.708;9.030;2023-11-19T09:35:56;1.30;;;1.10;;
6354;SDS011;3210;48.708;9.030;2023-11-19T09:38:25;0.80;;;0.50;;
6354;SDS011;3210;48.708;9.030;2023-11-19T09:40:52;3.33;;;0.80;;
6354;SDS011;3210;48.708;9.030;2023-11-19T09:43:19;1.93;;;0.50;;
6354;SDS011;3210;48.708;9.030;2023-11-19T09:45:47;0.60;;;0.43;;
6354;SDS011;3210;48.708;9.030;2023-11-19T09:48:16;0.80;;;0.53;;
6354;SDS011;3210;48.708;9.030;2023-11-19T09:50:44;1.43;;;0.60;;
6354;SDS011;3210;48.708;9.030;2023-11-19T09:53:11;1.73;;;0.47;;
6354;SDS011;3210;48.708;9.030;2023-11-19T09:55:39;0.67;;;0.50;;
6354;SDS011;3210;48.708;9.030;2023-11-19T09:58:06;7.13;;;0.80;;
6354;SDS011;3210;48.708;9.030;2023-11-19T10:00:33;1.93;;;1.40;;
6354;SDS011;3210;48.708;9.030;2023-11-19T10:03:00;3.67;;;1.80;;
6354;SDS011;3210;48.708;9.030;2023-11-19T10:05:30;3.47;;;1.00;;
6354;SDS011;3210;48.708;9.030;2023-11-19T10:07:57;1.93;;;0.53;;
6354;SDS011;3210;48.708;9.030;2023-11-19T10:10:24;1.10;;;0.80;;
6354;SDS011;3210;48.708;9.030;2023-11-19T10:12:52;5.63;;;0.70;;
6354;SDS011;3210;48.708;9.030;2023-11-19T10:15:20;0.70;;;0.40;;
6354;SDS011;3210;48.708;9.030;2023-11-19T10:17:48;3.03;;;0.80;;
6354;SDS011;3210;48.708;9.030;2023-11-19T10:20:15;1.53;;;0.60;;
6354;SDS011;3210;48.708;9.030;2023-11-19T10:22:42;8.80;;;0.70;;
6354;SDS011;3210;48.708;9.030;2023-11-19T10:25:20;2.70;;;0.70;;
6354;SDS011;3210;48.708;9.030;2023-11-19T10:27:49;0.90;;;0.60;;
6354;SDS011;3210;48.708;9.030;2023-11-19T10:30:18;0.60;;;0.40;;
6354;SDS011;3210;48.708;9.030;2023-11-19T10:32:52;0.70;;;0.60;;
6354;SDS011;3210;48.708;9.030;2023-11-19T10:35:29;0.77;;;0.50;;
6354;SDS011;3210;48.708;9.030;2023-11-19T10:37:56;1.10;;;0.50;;
6354;SDS011;3210;48.708;9.030;2023-11-19T10:40:29;1.83;;;0.50;;
6354;SDS011;3210;48.708;9.030;2023-11-19T10:43:04;0.90;;;0.30;;
6354;SDS011;3210;48.708;9.030;2023-11-19T10:45:34;1.30;;;0.47;;
6354;SDS011;3210;48.708;9.030;2023-11-19T10:48:02;0.70;;;0.30;;
6354;SDS011;3210;48.708;9.030;2023-11-19T10:50:31;0.80;;;0.40;;
6354;SDS011;3210;48.708;9.030;2023-11-19T10:52:59;0.50;;;0.30;;
6354;SDS011;3210;48.708;9.030;2023-11-19T10:55:26;1.00;;;0.50;;
6354;SDS011;3210;48.708;9.030;2023-11-19T10:57:56;2.17;;;0.40;;
6354;SDS011;3210;48.708;9.030;2023-11-19T11:00:28;1.73;;;0.50;;
6354;SDS011;3210;48.708;9.030;2023-11-19T11:03:00;1.47;;;0.60;;
6354;SDS011;3210;48.708;9.030;2023-11-19T11:05:27;3.47;;;0.57;;
6354;SDS011;3210;48.708;9.030;2023-11-19T11:08:00;2.13;;;1.93;;
6354;SDS011;3210;48.708;9.030;2023-11-19T11:10:28;0.67;;;0.43;;
6354;SDS011;3210;48.708;9.030;2023-11-19T11:13:02;1.57;;;0.70;;
6354;SDS011;3210;48.708;9.030;2023-11-19T11:15:30;0.60;;;0.40;;
6354;SDS011;3210;48.708;9.030;2023-11-19T11:17:59;1.63;;;0.60;;
6354;SDS011;3210;48.708;9.030;2023-11-19T11:20:27;1.20;;;0.57;;
6354;SDS011;3210;48.708;9.030;2023-11-19T11:22:58;2.30;;;0.57;;
6354;SDS011;3210;48.708;9.030;2023-11-19T11:25:38;4.63;;;0.57;;
6354;SDS011;3210;48.708;9.030;2023-11-19T11:28:17;0.73;;;0.60;;
6354;SDS011;3210;48.708;9.030;2023-11-19T11:31:00;1.10;;;0.60;;
6354;SDS011;3210;48.708;9.030;2023-11-19T11:33:41;2.93;;;0.50;;
6354;SDS011;3210;48.708;9.030;2023-11-19T11:36:25;1.63;;;0.40;;
6354;SDS011;3210;48.708;9.030;2023-11-19T11:38:53;1.87;;;0.57;;
6354;SDS011;3210;48.708;9.030;2023-11-19T11:41:25;0.80;;;0.50;;
6354;SDS011;3210;48.708;9.030;2023-11-19T11:43:53;3.67;;;1.50;;
6354;SDS011;3210;48.708;9.030;2023-11-19T11:49:26;4.30;;;1.30;;
6354;SDS011;3210;48.708;9.030;2023-11-19T11:51:59;0.83;;;0.60;;
6354;SDS011;3210;48.708;9.030;2023-11-19T11:54:33;0.83;;;0.47;;
6354;SDS011;3210;48.708;9.030;2023-11-19T11:57:07;0.70;;;0.40;;
6354;SDS011;3210;48.708;9.030;2023-11-19T11:59:47;1.10;;;0.50;;
6354;SDS011;3210;48.708;9.030;2023-11-19T12:02:15;2.30;;;0.67;;
6354;SDS011;3210;48.708;9.030;2023-11-19T12:04:47;0.63;;;0.40;;
6354;SDS011;3210;48.708;9.030;2023-11-19T12:07:15;1.60;;;0.53;;
6354;SDS011;3210;48.708;9.030;2023-11-19T12:09:46;1.13;;;0.40;;
6354;SDS011;3210;48.708;9.030;2023-11-19T12:12:21;0.70;;;0.60;;
6354;SDS011;3210;48.708;9.030;2023-11-19T12:15:01;12.27;;;1.23;;
6354;SDS011;3210;48.708;9.030;2023-11-19T12:17:37;4.40;;;0.80;;
6354;SDS011;3210;48.708;9.030;2023-11-19T12:20:11;1.17;;;0.70;;
6354;SDS011;3210;48.708;9.030;2023-11-19T12:22:39;0.90;;;0.40;;
6354;SDS011;3210;48.708;9.030;2023-11-19T12:25:07;0.80;;;0.50;;
6354;SDS011;3210;48.708;9.030;2023-11-19T12:27:35;3.20;;;0.87;;
6354;SDS011;3210;48.708;9.030;2023-11-19T12:30:02;2.93;;;0.80;;
6354;SDS011;3210;48.708;9.030;2023-11-19T12:32:37;5.53;;;0.80;;
6354;SDS011;3210;48.708;9.030;2023-11-19T12:35:07;1.10;;;0.70;;
6354;SDS011;3210;48.708;9.030;2023-11-19T12:37:47;1.40;;;0.57;;
6354;SDS011;3210;48.708;9.030;2023-11-19T12:40:15;2.90;;;0.50;;
6354;SDS011;3210;48.708;9.030;2023-11-19T12:42:43;0.73;;;0.53;;
6354;SDS011;3210;48.708;9.030;2023-11-19T12:45:10;0.63;;;0.47;;
6354;SDS011;3210;48.708;9.030;2023-11-19T12:47:37;1.23;;;0.70;;
6354;SDS011;3210;48.708;9.030;2023-11-19T12:50:05;1.50;;;1.00;;
6354;SDS011;3210;48.708;9.030;2023-11-19T12:52:33;1.73;;;1.17;;
6354;SDS011;3210;48.708;9.030;2023-11-19T12:55:01;5.00;;;1.60;;
6354;SDS011;3210;48.708;9.030;2023-11-19T12:57:37;3.00;;;1.50;;
6354;SDS011;3210;48.708;9.030;2023-11-19T13:00:05;3.50;;;1.43;;
6354;SDS011;3210;48.708;9.030;2023-11-19T13:02:45;3.10;;;0.70;;
6354;SDS011;3210;48.708;9.030;2023-11-19T13:05:23;2.30;;;0.70;;
6354;SDS011;3210;48.708;9.030;2023-11-19T13:07:51;1.63;;;0.60;;
6354;SDS011;3210;48.708;9.030;2023-11-19T13:10:25;3.53;;;0.80;;
6354;SDS011;3210;48.708;9.030;2023-11-19T13:13:01;1.33;;;0.60;;
6354;SDS011;3210;48.708;9.030;2023-11-19T13:15:29;3.70;;;0.60;;
6354;SDS011;3210;48.708;9.030;2023-11-19T13:17:57;0.83;;;0.60;;
6354;SDS011;3210;48.708;9.030;2023-11-19T13:20:23;1.23;;;0.87;;
6354;SDS011;3210;48.708;9.030;2023-11-19T13:22:54;1.50;;;1.27;;
6354;SDS011;3210;48.708;9.030;2023-11-19T13:25:26;3.03;;;0.83;;
6354;SDS011;3210;48.708;9.030;2023-11-19T13:27:53;3.87;;;1.00;;
6354;SDS011;3210;48.708;9.030;2023-11-19T13:30:20;0.97;;;0.60;;
6354;SDS011;3210;48.708;9.030;2023-11-19T13:32:47;2.50;;;1.03;;
6354;SDS011;3210;48.708;9.030;2023-11-19T13:35:14;3.73;;;1.33;;
6354;SDS011;3210;48.708;9.030;2023-11-19T13:37:42;2.00;;;0.50;;
6354;SDS011;3210;48.708;9.030;2023-11-19T13:40:09;3.03;;;0.60;;
6354;SDS011;3210;48.708;9.030;2023-11-19T13:42:41;3.67;;;0.60;;
6354;SDS011;3210;48.708;9.030;2023-11-19T13:45:09;6.47;;;0.73;;
6354;SDS011;3210;48.708;9.030;2023-11-19T13:47:38;1.10;;;0.63;;
6354;SDS011;3210;48.708;9.030;2023-11-19T13:50:08;1.10;;;0.93;;
6354;SDS011;3210;48.708;9.030;2023-11-19T13:52:35;1.20;;;0.60;;
6354;SDS011;3210;48.708;9.030;2023-11-19T13:55:04;0.80;;;0.70;;
6354;SDS011;3210;48.708;9.030;2023-11-19T13:57:32;1.63;;;0.70;;
6354;SDS011;3210;48.708;9.030;2023-11-19T14:00:00;2.53;;;0.70;;
6354;SDS011;3210;48.708;9.030;2023-11-19T14:02:30;1.33;;;0.97;;
6354;SDS011;3210;48.708;9.030;2023-11-19T14:04:57;1.33;;;0.80;;
6354;SDS011;3210;48.708;9.030;2023-11-19T14:07:24;0.80;;;0.60;;
6354;SDS011;3210;48.708;9.030;2023-11-19T14:09:50;0.90;;;0.53;;
6354;SDS011;3210;48.708;9.030;2023-11-19T14:12:17;1.97;;;0.70;;
6354;SDS011;3210;48.708;9.030;2023-11-19T14:14:44;2.70;;;1.20;;
6354;SDS011;3210;48.708;9.030;2023-11-19T14:17:12;1.17;;;0.90;;
6354;SDS011;3210;48.708;9.030;2023-11-19T14:19:40;2.30;;;1.03;;
6354;SDS011;3210;48.708;9.030;2023-11-19T14:22:07;4.73;;;0.70;;
6354;SDS011;3210;48.708;9.030;2023-11-19T14:24:34;1.80;;;0.57;;
6354;SDS011;3210;48.708;9.030;2023-11-19T14:27:01;0.90;;;0.47;;
6354;SDS011;3210;48.708;9.030;2023-11-19T14:29:28;0.90;;;0.40;;
6354;SDS011;3210;48.708;9.030;2023-11-19T14:31:55;0.73;;;0.50;;
6354;SDS011;3210;48.708;9.030;2023-11-19T14:34:25;1.73;;;0.90;;
6354;SDS011;3210;48.708;9.030;2023-11-19T14:36:52;5.97;;;0.60;;
6354;SDS011;3210;48.708;9.030;2023-11-19T14:39:19;6.37;;;0.67;;
6354;SDS011;3210;48.708;9.030;2023-11-19T14:41:46;4.03;;;0.93;;
6354;SDS011;3210;48.708;9.030;2023-11-19T14:44:14;1.20;;;0.50;;
6354;SDS011;3210;48.708;9.030;2023-11-19T14:46:41;1.00;;;0.70;;
6354;SDS011;3210;48.708;9.030;2023-11-19T14:49:07;5.03;;;1.07;;
6354;SDS011;3210;48.708;9.030;2023-11-19T14:51:36;0.90;;;0.67;;
6354;SDS011;3210;48.708;9.030;2023-11-19T14:54:03;0.97;;;0.40;;
6354;SDS011;3210;48.708;9.030;2023-11-19T14:56:30;0.67;;;0.50;;
6354;SDS011;3210;48.708;9.030;2023-11-19T14:58:57;3.13;;;0.70;;
6354;SDS011;3210;48.708;9.030;2023-11-19T15:01:24;0.90;;;0.80;;
6354;SDS011;3210;48.708;9.030;2023-11-19T15:03:53;1.90;;;0.50;;
6354;SDS011;3210;48.708;9.030;2023-11-19T15:06:22;1.40;;;0.63;;
6354;SDS011;3210;48.708;9.030;2023-11-19T15:08:52;1.00;;;0.67;;
6354;SDS011;3210;48.708;9.030;2023-11-19T15:11:19;1.90;;;0.70;;
6354;SDS011;3210;48.708;9.030;2023-11-19T15:13:46;0.90;;;0.60;;
6354;SDS011;3210;48.708;9.030;2023-11-19T15:16:14;0.70;;;0.70;;
6354;SDS011;3210;48.708;9.030;2023-11-19T15:18:47;5.03;;;0.60;;
6354;SDS011;3210;48.708;9.030;2023-11-19T15:21:13;1.33;;;0.80;;
6354;SDS011;3210;48.708;9.030;2023-11-19T15:23:40;6.10;;;0.53;;
6354;SDS011;3210;48.708;9.030;2023-11-19T15:26:08;5.17;;;1.13;;
6354;SDS011;3210;48.708;9.030;2023-11-19T15:28:35;4.03;;;1.17;;